Time;durP1;ratioP1;P1;durP2;ratioP2;P2;SDS_P1;SDS_P2;PMS_P1;PMS_P2;Temp;Humidity;BMP_temperature;BMP_pressure;BME280_temperature;BME280_humidity;BME280_pressure;Samples;Min_cycle;Max_cycle;Signal;HPM_P1;HPM_P2
2023/03/19 00:00:27;;;;;;;;;;;;;;;21.52;46.61;100716.00;7260893;19;154242;-54
2023/03/19 00:02:53;;;;;;;;;;;;;;;21.55;46.61;100715.34;7256788;19;151927;-54
2023/03/19 00:05:20;;;;;;;;;;;;;;;21.50;46.64;100719.09;7255552;19;156240;-54
2023/03/19 00:07:47;;;;;;;;;;;;;;;21.43;46.45;100727.19;7258011;19;153134;-54
2023/03/19 00:10:14;;;;;;;;;;;;;;;21.50;46.49;100732.34;7256993;19;152791;-54
2023/03/19 00:12:40;;;;;;;;;;;;;;;21.45;46.42;100733.28;7257508;19;152643;-54
2023/03/19 00:15:12;;;;;;;;;;;;;;;21.40;46.29;100727.78;7254062;19;153257;-54
2023/03/19 00:17:41;;;;;;;;;;;;;;;21.37;46.42;100730.41;7258728;19;153624;-54
2023/03/19 00:20:10;;;;;;;;;;;;;;;21.37;46.47;100734.06;7256441;19;154798;-54
2023/03/19 00:22:36;;;;;;;;;;;;;;;21.33;46.53;100730.25;7262428;19;154046;-54
2023/03/19 00:25:03;;;;;;;;;;;;;;;21.30;46.51;100733.69;7254973;19;152854;-54
2023/03/19 00:27:30;;;;;;;;;;;;;;;21.32;46.47;100733.34;7255923;19;155040;-54
2023/03/19 00:29:57;;;;;;;;;;;;;;;21.28;46.88;100739.63;7256510;19;151955;-54
2023/03/19 00:32:24;;;;;;;;;;;;;;;21.28;46.76;100745.25;7256390;19;152887;-54
2023/03/19 00:34:51;;;;;;;;;;;;;;;21.27;46.98;100756.78;7256843;19;154006;-54
2023/03/19 00:37:17;;;;;;;;;;;;;;;21.24;46.71;100749.00;7264234;19;152665;-55
2023/03/19 00:39:44;;;;;;;;;;;;;;;21.22;46.88;100754.94;7262113;19;153199;-54
2023/03/19 00:42:11;;;;;;;;;;;;;;;21.19;46.82;100752.78;7261230;19;155537;-54
2023/03/19 00:44:37;;;;;;;;;;;;;;;21.20;47.01;100753.59;7270861;19;153465;-54
2023/03/19 00:47:06;;;;;;;;;;;;;;;21.20;46.88;100757.25;7259580;19;153301;-54
2023/03/19 00:49:32;;;;;;;;;;;;;;;21.17;47.21;100765.47;7262606;19;152308;-55
2023/03/19 00:51:59;;;;;;;;;;;;;;;21.17;47.16;100768.28;7262994;19;153301;-54
2023/03/19 00:54:26;;;;;;;;;;;;;;;21.16;46.91;100772.25;7261508;19;154302;-54
2023/03/19 00:56:53;;;;;;;;;;;;;;;21.15;47.18;100771.41;7259885;19;153492;-54
2023/03/19 00:59:21;;;;;;;;;;;;;;;21.14;46.90;100775.38;7261000;19;153085;-54
2023/03/19 01:01:48;;;;;;;;;;;;;;;21.13;46.98;100781.28;7261507;19;156422;-55
2023/03/19 01:04:14;;;;;;;;;;;;;;;21.09;47.08;100781.06;7269608;19;153843;-54
2023/03/19 01:06:41;;;;;;;;;;;;;;;21.09;47.30;100772.63;7257279;19;154616;-55
2023/03/19 01:09:08;;;;;;;;;;;;;;;21.09;47.15;100777.44;7260156;19;153113;-54
2023/03/19 01:11:35;;;;;;;;;;;;;;;21.07;47.52;100772.16;7261994;19;153548;-54
2023/03/19 01:14:02;;;;;;;;;;;;;;;21.06;47.67;100778.06;7261410;19;153796;-54
2023/03/19 01:16:29;;;;;;;;;;;;;;;21.03;47.54;100784.31;7263146;19;153276;-54
2023/03/19 01:18:56;;;;;;;;;;;;;;;21.04;47.85;100797.19;7264760;19;154549;-54
2023/03/19 01:21:22;;;;;;;;;;;;;;;21.01;47.92;100800.66;7263092;19;153298;-54
2023/03/19 01:23:50;;;;;;;;;;;;;;;21.01;47.60;100803.47;7261025;19;154258;-54
2023/03/19 01:26:17;;;;;;;;;;;;;;;20.97;48.06;100811.69;7269128;19;153242;-54
2023/03/19 01:28:44;;;;;;;;;;;;;;;20.98;48.20;100821.78;7260247;19;154150;-54
2023/03/19 01:31:11;;;;;;;;;;;;;;;20.97;48.17;100820.13;7262255;19;153577;-54
2023/03/19 01:33:38;;;;;;;;;;;;;;;20.95;48.39;100824.38;7260156;19;153573;-54
2023/03/19 01:36:05;;;;;;;;;;;;;;;20.95;48.49;100827.19;7262392;19;154306;-54
2023/03/19 01:38:32;;;;;;;;;;;;;;;20.93;48.54;100826.69;7261282;19;153725;-54
2023/03/19 01:40:59;;;;;;;;;;;;;;;20.91;48.97;100837.38;7259748;19;154597;-54
2023/03/19 01:43:28;;;;;;;;;;;;;;;20.91;48.78;100851.44;7258730;19;153641;-54
2023/03/19 01:45:57;;;;;;;;;;;;;;;20.86;49.38;100850.38;7260254;19;154012;-54
2023/03/19 01:48:28;;;;;;;;;;;;;;;20.86;48.89;100856.00;7265356;19;155018;-54
2023/03/19 01:50:55;;;;;;;;;;;;;;;20.83;49.38;100845.41;7261129;19;154246;-53
2023/03/19 01:53:24;;;;;;;;;;;;;;;20.81;49.23;100852.47;7259089;19;153750;-53
2023/03/19 01:55:54;;;;;;;;;;;;;;;20.80;49.50;100870.47;7255700;19;152746;-53
2023/03/19 01:58:21;;;;;;;;;;;;;;;20.78;49.13;100869.94;7261891;19;154481;-54
2023/03/19 02:00:51;;;;;;;;;;;;;;;20.77;49.30;100882.31;7260248;19;153075;-54
2023/03/19 02:03:18;;;;;;;;;;;;;;;20.74;49.52;100882.94;7261585;19;153148;-54
2023/03/19 02:05:47;;;;;;;;;;;;;;;20.72;49.65;100886.06;7262307;19;153337;-53
2023/03/19 02:08:15;;;;;;;;;;;;;;;20.71;49.38;100884.41;7259158;19;153189;-53
2023/03/19 02:10:43;;;;;;;;;;;;;;;20.70;49.43;100891.19;7267637;19;153932;-53
2023/03/19 02:13:10;;;;;;;;;;;;;;;20.68;49.44;100889.81;7258161;19;153799;-53
2023/03/19 02:15:37;;;;;;;;;;;;;;;20.66;49.24;100890.13;7262485;19;152365;-53
2023/03/19 02:18:04;;;;;;;;;;;;;;;20.65;49.38;100882.00;7262036;19;153343;-53
2023/03/19 02:20:34;;;;;;;;;;;;;;;20.64;49.32;100878.38;7259879;19;154169;-53
2023/03/19 02:23:25;;;;;;;;;;;;;;;20.63;49.59;100875.88;7257566;19;153627;-55
2023/03/19 02:25:55;;;;;;;;;;;;;;;20.60;49.47;100877.34;7258421;19;153278;-53
2023/03/19 02:28:22;;;;;;;;;;;;;;;20.59;49.46;100877.63;7260069;19;154633;-53
2023/03/19 02:30:50;;;;;;;;;;;;;;;20.58;49.68;100881.59;7262216;19;153532;-53
2023/03/19 02:33:17;;;;;;;;;;;;;;;20.56;49.22;100872.66;7264670;19;153610;-53
2023/03/19 02:35:46;;;;;;;;;;;;;;;20.54;49.57;100878.56;7257041;19;153788;-53
2023/03/19 02:38:13;;;;;;;;;;;;;;;20.55;49.49;100870.97;7258292;19;153397;-53
2023/03/19 02:40:58;;;;;;;;;;;;;;;20.54;49.63;100872.13;7257354;19;153959;-54
2023/03/19 02:43:25;;;;;;;;;;;;;;;20.51;49.45;100881.16;7259620;19;152662;-53
2023/03/19 02:45:53;;;;;;;;;;;;;;;20.50;49.60;100880.31;7257852;19;153672;-54
2023/03/19 02:48:19;;;;;;;;;;;;;;;20.49;49.60;100889.06;7254718;19;154098;-54
2023/03/19 02:50:46;;;;;;;;;;;;;;;20.45;49.59;100888.00;7258819;19;152462;-54
2023/03/19 02:53:14;;;;;;;;;;;;;;;20.45;49.50;100900.06;7257157;19;153906;-54
2023/03/19 02:55:42;;;;;;;;;;;;;;;20.45;49.16;100894.44;7261298;19;154249;-54
2023/03/19 02:58:09;;;;;;;;;;;;;;;20.44;49.20;100889.16;7258577;19;152150;-54
2023/03/19 03:00:36;;;;;;;;;;;;;;;20.44;49.46;100894.78;7258853;19;154409;-54
2023/03/19 03:03:05;;;;;;;;;;;;;;;20.43;49.41;100891.16;7257959;19;153924;-54
2023/03/19 03:05:32;;;;;;;;;;;;;;;20.41;49.43;100899.84;7257090;19;153146;-54
2023/03/19 03:07:59;;;;;;;;;;;;;;;20.40;49.36;100902.97;7254410;19;154756;-54
2023/03/19 03:10:26;;;;;;;;;;;;;;;20.37;49.42;100896.00;7257822;19;153364;-54
2023/03/19 03:12:53;;;;;;;;;;;;;;;20.37;49.69;100900.78;7257967;19;152782;-54
2023/03/19 03:15:20;;;;;;;;;;;;;;;20.35;49.56;100906.69;7264046;19;154296;-54
2023/03/19 03:17:47;;;;;;;;;;;;;;;20.34;49.56;100909.81;7257366;19;153347;-54
2023/03/19 03:20:16;;;;;;;;;;;;;;;20.33;49.70;100902.53;7257095;19;154611;-54
2023/03/19 03:22:43;;;;;;;;;;;;;;;20.32;49.40;100912.94;7258371;19;154245;-54
2023/03/19 03:25:10;;;;;;;;;;;;;;;20.30;49.41;100906.81;7257177;19;153758;-54
2023/03/19 03:27:37;;;;;;;;;;;;;;;20.28;49.44;100906.25;7258007;19;154508;-54
2023/03/19 03:30:05;;;;;;;;;;;;;;;20.29;49.75;100918.31;7257987;19;152657;-54
2023/03/19 03:32:36;;;;;;;;;;;;;;;20.29;49.90;100921.09;7257885;19;152799;-54
2023/03/19 03:35:04;;;;;;;;;;;;;;;20.26;49.53;100925.34;7257047;19;154011;-54
2023/03/19 03:37:31;;;;;;;;;;;;;;;20.26;49.90;100935.75;7264997;19;153051;-54
2023/03/19 03:39:57;;;;;;;;;;;;;;;20.25;49.99;100926.50;7255192;19;153337;-54
2023/03/19 03:42:28;;;;;;;;;;;;;;;20.24;49.96;100938.03;7259155;19;153984;-53
2023/03/19 03:44:55;;;;;;;;;;;;;;;20.23;49.94;100944.78;7259055;19;154075;-53
2023/03/19 03:47:22;;;;;;;;;;;;;;;20.22;49.58;100945.91;7253042;19;154032;-53
2023/03/19 03:49:48;;;;;;;;;;;;;;;20.21;49.56;100944.25;7257522;19;152962;-55
2023/03/19 03:52:15;;;;;;;;;;;;;;;20.20;49.82;100942.59;7256525;19;153737;-55
2023/03/19 03:54:42;;;;;;;;;;;;;;;20.18;49.67;100936.44;7254100;19;152954;-54
2023/03/19 03:57:08;;;;;;;;;;;;;;;20.17;49.86;100937.59;7256126;19;153371;-56
2023/03/19 03:59:35;;;;;;;;;;;;;;;20.17;49.67;100937.59;7261882;19;154526;-55
2023/03/19 04:02:02;;;;;;;;;;;;;;;20.16;49.69;100938.72;7256003;19;154181;-55
2023/03/19 04:04:29;;;;;;;;;;;;;;;20.15;49.48;100945.47;7254037;19;152657;-55
2023/03/19 04:06:56;;;;;;;;;;;;;;;20.14;49.61;100963.44;7255958;19;154062;-55
2023/03/19 04:09:23;;;;;;;;;;;;;;;20.13;49.46;100953.34;7252019;19;153737;-55
2023/03/19 04:11:50;;;;;;;;;;;;;;;20.12;49.56;100965.72;7255670;19;153000;-55
2023/03/19 04:14:17;;;;;;;;;;;;;;;20.11;49.56;100975.28;7255296;19;153205;-55
2023/03/19 04:16:44;;;;;;;;;;;;;;;20.10;49.50;100974.44;7256929;19;152594;-55
2023/03/19 04:19:10;;;;;;;;;;;;;;;20.07;49.61;100977.03;7257213;19;153984;-53
2023/03/19 04:21:37;;;;;;;;;;;;;;;20.09;49.69;100980.34;7263914;19;153415;-55
2023/03/19 04:24:04;;;;;;;;;;;;;;;20.07;49.45;100979.84;7254107;19;152580;-55
2023/03/19 04:26:31;;;;;;;;;;;;;;;20.06;49.79;100984.59;7256472;19;153652;-55
2023/03/19 04:28:58;;;;;;;;;;;;;;;20.07;49.36;100989.09;7256696;19;153308;-55
2023/03/19 04:31:24;;;;;;;;;;;;;;;20.06;49.71;100995.00;7254596;19;152935;-55
2023/03/19 04:33:52;;;;;;;;;;;;;;;20.03;49.40;100998.41;7254090;19;153912;-55
2023/03/19 04:36:20;;;;;;;;;;;;;;;20.04;49.53;101014.09;7256901;19;152613;-55
2023/03/19 04:38:46;;;;;;;;;;;;;;;20.01;49.35;101009.09;7254403;19;153645;-55
2023/03/19 04:41:15;;;;;;;;;;;;;;;19.99;49.34;101015.81;7253380;19;153385;-55
2023/03/19 04:43:41;;;;;;;;;;;;;;;19.98;49.30;101014.19;7262897;19;151974;-55
2023/03/19 04:46:08;;;;;;;;;;;;;;;19.98;49.69;101016.16;7255674;19;153486;-55
2023/03/19 04:48:35;;;;;;;;;;;;;;;19.97;49.70;101036.91;7254282;19;152810;-55
2023/03/19 04:51:02;;;;;;;;;;;;;;;19.97;49.31;101039.72;7258825;19;153554;-55
2023/03/19 04:53:29;;;;;;;;;;;;;;;19.95;49.59;101030.75;7254564;19;153936;-56
2023/03/19 04:55:56;;;;;;;;;;;;;;;19.94;49.21;101034.72;7253682;19;153787;-55
2023/03/19 04:58:23;;;;;;;;;;;;;;;19.93;49.14;101039.50;7253862;19;153433;-55
2023/03/19 05:00:49;;;;;;;;;;;;;;;19.92;49.16;101036.97;7254183;19;154237;-55
2023/03/19 05:03:16;;;;;;;;;;;;;;;19.91;49.57;101047.34;7264364;19;152795;-55
2023/03/19 05:05:43;;;;;;;;;;;;;;;19.90;49.33;101044.84;7252808;19;154549;-55
2023/03/19 05:08:10;;;;;;;;;;;;;;;19.90;49.67;101044.84;7255153;19;152930;-55
2023/03/19 05:10:37;;;;;;;;;;;;;;;19.89;49.67;101054.41;7254567;19;152874;-55
2023/03/19 05:13:03;;;;;;;;;;;;;;;19.89;49.29;101049.66;7254529;19;153569;-55
2023/03/19 05:15:30;;;;;;;;;;;;;;;19.87;49.25;101054.72;7254340;19;153539;-55
2023/03/19 05:17:57;;;;;;;;;;;;;;;19.87;49.62;101051.91;7256440;19;153739;-55
2023/03/19 05:20:24;;;;;;;;;;;;;;;19.85;49.21;101056.97;7256952;19;153970;-55
2023/03/19 05:22:51;;;;;;;;;;;;;;;19.85;49.37;101058.97;7263028;19;153770;-55
2023/03/19 05:25:18;;;;;;;;;;;;;;;19.82;49.45;101068.78;7265726;19;153886;-55
2023/03/19 05:27:45;;;;;;;;;;;;;;;19.80;49.50;101068.28;7260369;19;154318;-55
2023/03/19 05:30:11;;;;;;;;;;;;;;;19.80;49.23;101073.88;7260390;19;153952;-55
2023/03/19 05:32:39;;;;;;;;;;;;;;;19.79;49.08;101077.81;7260488;19;153888;-55
2023/03/19 05:35:06;;;;;;;;;;;;;;;19.77;49.19;101074.47;7261315;19;152189;-55
2023/03/19 05:37:33;;;;;;;;;;;;;;;19.78;49.35;101075.31;7262443;19;153844;-55
2023/03/19 05:40:00;;;;;;;;;;;;;;;19.76;49.33;101078.41;7257306;19;153919;-55
2023/03/19 05:42:29;;;;;;;;;;;;;;;19.75;49.26;101084.31;7261055;19;153033;-55
2023/03/19 05:44:55;;;;;;;;;;;;;;;19.74;49.28;101086.28;7262771;19;155970;-55
2023/03/19 05:47:22;;;;;;;;;;;;;;;19.75;49.31;101098.34;7267871;19;154010;-55
2023/03/19 05:49:49;;;;;;;;;;;;;;;19.72;49.00;101094.16;7262551;19;153969;-55
2023/03/19 05:52:16;;;;;;;;;;;;;;;19.71;49.25;101095.31;7260398;19;153961;-55
2023/03/19 05:54:42;;;;;;;;;;;;;;;19.71;49.17;101102.88;7260070;19;152352;-55
2023/03/19 05:57:09;;;;;;;;;;;;;;;19.70;48.98;101101.22;7260829;19;153290;-55
2023/03/19 05:59:36;;;;;;;;;;;;;;;19.68;48.84;101104.28;7257591;19;153839;-55
2023/03/19 06:02:02;;;;;;;;;;;;;;;19.70;48.89;101104.00;7261444;19;153109;-55
2023/03/19 06:04:30;;;;;;;;;;;;;;;19.71;49.28;101105.69;7261605;19;154150;-55
2023/03/19 06:06:56;;;;;;;;;;;;;;;19.69;48.99;101111.59;7261792;19;153458;-55
2023/03/19 06:09:23;;;;;;;;;;;;;;;19.68;49.13;101112.72;7265207;19;152212;-55
2023/03/19 06:11:50;;;;;;;;;;;;;;;19.66;48.70;101109.38;7262995;19;153417;-55
2023/03/19 06:14:17;;;;;;;;;;;;;;;19.65;48.63;101112.47;7259939;19;153553;-55
2023/03/19 06:16:43;;;;;;;;;;;;;;;19.64;48.61;101119.22;7262953;19;153765;-55
2023/03/19 06:19:13;;;;;;;;;;;;;;;19.61;48.86;101120.66;7258374;19;153370;-55
2023/03/19 06:21:40;;;;;;;;;;;;;;;19.61;48.66;101123.47;7260233;19;153891;-55
2023/03/19 06:24:07;;;;;;;;;;;;;;;19.59;48.65;101122.91;7259720;19;152985;-55
2023/03/19 06:26:33;;;;;;;;;;;;;;;19.59;48.68;101131.31;7261079;19;153762;-55
2023/03/19 06:29:00;;;;;;;;;;;;;;;19.58;48.68;101128.81;7260017;19;153104;-55
2023/03/19 06:31:27;;;;;;;;;;;;;;;19.57;48.35;101135.56;7267420;19;153456;-55
2023/03/19 06:33:55;;;;;;;;;;;;;;;19.56;48.58;101140.31;7255398;19;152089;-55
2023/03/19 06:36:21;;;;;;;;;;;;;;;19.55;48.52;101144.25;7260791;19;153384;-53
2023/03/19 06:38:49;;;;;;;;;;;;;;;19.53;48.42;101152.16;7258377;19;154513;-55
2023/03/19 06:41:16;;;;;;;;;;;;;;;19.52;48.53;101159.72;7259332;19;152812;-55
2023/03/19 06:43:42;;;;;;;;;;;;;;;19.52;48.31;101161.69;7260307;19;152850;-54
2023/03/19 06:46:09;;;;;;;;;;;;;;;19.51;48.46;101165.59;7258179;19;154887;-53
2023/03/19 06:48:37;;;;;;;;;;;;;;;19.49;48.33;101174.28;7259514;19;152649;-53
2023/03/19 06:51:04;;;;;;;;;;;;;;;19.49;48.58;101173.44;7258859;19;153327;-53
2023/03/19 06:53:31;;;;;;;;;;;;;;;19.48;48.22;101175.44;7266704;19;153521;-54
2023/03/19 06:55:58;;;;;;;;;;;;;;;19.48;48.33;101180.22;7257451;19;152900;-53
2023/03/19 06:58:25;;;;;;;;;;;;;;;19.46;48.37;101185.25;7258175;19;154213;-53
2023/03/19 07:00:52;;;;;;;;;;;;;;;19.46;48.26;101180.50;7257443;19;152510;-55
2023/03/19 07:03:19;;;;;;;;;;;;;;;19.44;48.38;101188.34;7256782;19;153913;-55
2023/03/19 07:05:47;;;;;;;;;;;;;;;19.44;48.78;101193.16;7256515;19;153626;-55
2023/03/19 07:08:14;;;;;;;;;;;;;;;19.44;48.38;101191.16;7258907;19;153921;-55
2023/03/19 07:10:40;;;;;;;;;;;;;;;19.44;48.58;101195.94;7258062;19;152823;-55
2023/03/19 07:13:07;;;;;;;;;;;;;;;19.42;48.75;101200.97;7266101;19;153344;-55
2023/03/19 07:15:35;;;;;;;;;;;;;;;19.41;48.23;101211.34;7257680;19;152588;-55
2023/03/19 07:18:02;;;;;;;;;;;;;;;19.41;48.50;101213.31;7258069;19;154421;-55
2023/03/19 07:20:29;;;;;;;;;;;;;;;19.40;48.41;101222.81;7259495;19;154081;-55
2023/03/19 07:22:56;;;;;;;;;;;;;;;19.38;48.42;101220.34;7259332;19;154262;-55
2023/03/19 07:25:23;;;;;;;;;;;;;;;19.37;48.74;101218.66;7256675;19;153956;-55
2023/03/19 07:27:49;;;;;;;;;;;;;;;19.36;48.70;101224.56;7258718;19;153917;-55
2023/03/19 07:30:16;;;;;;;;;;;;;;;19.36;48.81;101222.59;7256546;19;153131;-55
2023/03/19 07:32:43;;;;;;;;;;;;;;;19.35;48.62;101234.13;7256930;19;154099;-55
2023/03/19 07:35:09;;;;;;;;;;;;;;;19.34;48.36;101236.06;7266278;19;154417;-55
2023/03/19 07:37:36;;;;;;;;;;;;;;;19.33;48.39;101240.00;7255881;19;152623;-55
2023/03/19 07:40:03;;;;;;;;;;;;;;;19.33;48.71;101247.56;7257941;19;152983;-55
2023/03/19 07:42:35;;;;;;;;;;;;;;;19.33;48.39;101259.59;7257333;19;154014;-56
2023/03/19 07:45:02;;;;;;;;;;;;;;;19.32;48.80;101259.88;7252806;19;154399;-56
2023/03/19 07:47:29;;;;;;;;;;;;;;;19.37;48.81;101260.69;7256083;19;152885;-56
2023/03/19 07:49:56;;;;;;;;;;;;;;;19.48;49.17;101264.28;7254419;19;154003;-55
2023/03/19 07:52:24;;;;;;;;;;;;;;;19.54;48.54;101261.13;7254752;19;153338;-56
2023/03/19 07:54:51;;;;;;;;;;;;;;;19.62;48.99;101262.47;7254160;19;153039;-55
2023/03/19 07:57:18;;;;;;;;;;;;;;;19.64;49.02;101264.97;7261016;19;155825;-55
2023/03/19 07:59:45;;;;;;;;;;;;;;;19.67;49.27;101265.22;7257264;19;153043;-55
2023/03/19 08:02:12;;;;;;;;;;;;;;;19.70;49.42;101269.41;7258038;19;154166;-55
2023/03/19 08:04:39;;;;;;;;;;;;;;;19.74;49.92;101274.13;7255262;19;154978;-55
2023/03/19 08:07:06;;;;;;;;;;;;;;;19.78;50.12;101265.94;7256898;19;153445;-55
2023/03/19 08:09:33;;;;;;;;;;;;;;;19.83;50.30;101265.91;7252012;19;153318;-55
2023/03/19 08:12:00;;;;;;;;;;;;;;;19.88;50.54;101268.66;7256968;19;155159;-54
2023/03/19 08:14:26;;;;;;;;;;;;;;;19.91;50.19;101271.69;7256321;19;152993;-55
2023/03/19 08:16:53;;;;;;;;;;;;;;;19.95;50.23;101278.38;7256483;19;153571;-55
2023/03/19 08:19:21;;;;;;;;;;;;;;;20.00;49.96;101283.09;7263154;19;153821;-54
2023/03/19 08:21:47;;;;;;;;;;;;;;;20.05;49.80;101287.81;7257442;19;153933;-54
2023/03/19 08:24:14;;;;;;;;;;;;;;;20.08;49.89;101288.06;7253746;19;153647;-54
2023/03/19 08:26:41;;;;;;;;;;;;;;;20.13;49.89;101298.38;7255343;19;153840;-54
2023/03/19 08:29:08;;;;;;;;;;;;;;;20.14;50.03;101305.69;7254751;19;153230;-54
2023/03/19 08:31:35;;;;;;;;;;;;;;;20.17;49.74;101299.50;7257097;19;153788;-54
2023/03/19 08:34:03;;;;;;;;;;;;;;;20.19;49.00;101300.84;7255839;19;152498;-54
2023/03/19 08:36:31;;;;;;;;;;;;;;;20.22;49.12;101299.41;7255728;19;152265;-54
2023/03/19 08:38:57;;;;;;;;;;;;;;;20.25;49.56;101307.25;7253836;19;154329;-54
2023/03/19 08:41:24;;;;;;;;;;;;;;;20.26;48.55;101308.94;7262852;19;153010;-54
2023/03/19 08:43:51;;;;;;;;;;;;;;;20.29;48.86;101314.78;7254514;19;154524;-54
2023/03/19 08:46:18;;;;;;;;;;;;;;;20.31;48.38;101314.50;7255200;19;153235;-54
2023/03/19 08:48:45;;;;;;;;;;;;;;;20.32;48.50;101317.00;7256296;19;153905;-54
2023/03/19 08:51:11;;;;;;;;;;;;;;;20.34;48.42;101322.34;7255763;19;154271;-54
2023/03/19 08:53:38;;;;;;;;;;;;;;;20.36;47.93;101325.66;7255105;19;153476;-54
2023/03/19 08:56:06;;;;;;;;;;;;;;;20.37;48.35;101330.16;7256674;19;153135;-54
2023/03/19 08:58:33;;;;;;;;;;;;;;;20.39;47.99;101330.69;7262728;19;153674;-54
2023/03/19 09:01:03;;;;;;;;;;;;;;;20.40;47.82;101333.19;7262288;19;154108;-54
2023/03/19 09:03:31;;;;;;;;;;;;;;;20.42;48.15;101333.75;7266684;19;153093;-54
2023/03/19 09:05:59;;;;;;;;;;;;;;;20.45;47.98;101331.44;7263042;19;153904;-54
2023/03/19 09:08:27;;;;;;;;;;;;;;;20.48;48.17;101342.09;7263757;19;154363;-54
2023/03/19 09:10:54;;;;;;;;;;;;;;;20.49;47.69;101343.78;7262558;19;154614;-54
2023/03/19 09:13:21;;;;;;;;;;;;;;;20.51;48.02;101358.34;7263096;19;154068;-54
2023/03/19 09:15:48;;;;;;;;;;;;;;;20.52;47.33;101352.44;7262345;19;152681;-54
2023/03/19 09:18:15;;;;;;;;;;;;;;;20.55;47.45;101351.00;7263269;19;153530;-54
2023/03/19 09:20:42;;;;;;;;;;;;;;;20.56;47.43;101347.06;7262546;19;153285;-54
2023/03/19 09:23:10;;;;;;;;;;;;;;;20.57;47.28;101346.75;7269744;19;154332;-54
2023/03/19 09:25:36;;;;;;;;;;;;;;;20.59;46.80;101350.09;7258559;19;153879;-54
2023/03/19 09:28:03;;;;;;;;;;;;;;;20.59;46.64;101354.88;7263380;19;153697;-54
2023/03/19 09:30:30;;;;;;;;;;;;;;;20.59;46.54;101355.72;7259284;19;153817;-54
2023/03/19 09:32:57;;;;;;;;;;;;;;;20.59;46.60;101364.13;7259376;19;154072;-54
2023/03/19 09:35:29;;;;;;;;;;;;;;;20.59;46.69;101369.75;7254451;19;154264;-54
2023/03/19 09:37:58;;;;;;;;;;;;;;;20.58;46.43;101370.88;7260219;19;153671;-55
2023/03/19 09:40:32;;;;;;;;;;;;;;;20.59;46.33;101363.28;7260494;19;153151;-55
2023/03/19 09:43:18;;;;;;;;;;;;;;;20.58;46.81;101361.63;7261241;19;155686;-55
2023/03/19 09:45:46;;;;;;;;;;;;;;;20.58;46.43;101356.84;7266751;19;153483;-55
2023/03/19 09:48:17;;;;;;;;;;;;;;;20.57;46.35;101360.81;7262585;19;152637;-55
2023/03/19 09:50:45;;;;;;;;;;;;;;;20.58;46.46;101364.44;7261543;19;153377;-55
2023/03/19 09:53:12;;;;;;;;;;;;;;;20.55;46.08;101374.28;7261490;19;153684;-55
2023/03/19 09:55:46;;;;;;;;;;;;;;;20.55;46.38;101368.66;7259197;19;154021;-55
2023/03/19 09:58:18;;;;;;;;;;;;;;;20.54;46.00;101378.22;7261351;19;154303;-55
2023/03/19 10:00:49;;;;;;;;;;;;;;;20.54;46.25;101383.84;7262486;19;153276;-55
2023/03/19 10:03:19;;;;;;;;;;;;;;;20.52;45.87;101380.50;7260113;19;155056;-55
2023/03/19 10:06:04;;;;;;;;;;;;;;;20.48;46.14;101385.03;7258241;19;152900;-55
2023/03/19 10:08:52;;;;;;;;;;;;;;;20.47;46.14;101383.38;7264611;19;153160;-55
2023/03/19 10:11:34;;;;;;;;;;;;;;;20.46;45.89;101390.09;7261005;19;152318;-55
2023/03/19 10:14:13;;;;;;;;;;;;;;;20.42;46.15;101389.03;7260320;19;152243;-55
2023/03/19 10:16:42;;;;;;;;;;;;;;;20.44;45.86;101386.78;7259833;19;153937;-55
2023/03/19 10:19:12;;;;;;;;;;;;;;;20.45;45.90;101385.63;7257406;19;155048;-55
2023/03/19 10:21:45;;;;;;;;;;;;;;;20.47;45.45;101397.41;7256779;19;154055;-55
2023/03/19 10:24:12;;;;;;;;;;;;;;;20.49;45.36;101403.53;7257255;19;154168;-55
2023/03/19 10:26:40;;;;;;;;;;;;;;;20.47;46.11;101408.63;7256673;19;153705;-54
2023/03/19 10:29:13;;;;;;;;;;;;;;;20.48;45.44;101410.31;7255177;19;153250;-54
2023/03/19 10:31:48;;;;;;;;;;;;;;;20.48;45.59;101407.50;7265618;19;154072;-54
2023/03/19 10:34:28;;;;;;;;;;;;;;;20.46;45.31;101406.09;7258785;19;154529;-54
2023/03/19 10:37:02;;;;;;;;;;;;;;;20.48;44.84;101409.47;7256958;19;153826;-54
2023/03/19 10:39:32;;;;;;;;;;;;;;;20.50;45.08;101405.22;7256231;19;154795;-54
2023/03/19 10:42:09;;;;;;;;;;;;;;;20.52;44.90;101402.13;7257676;19;154086;-54
2023/03/19 10:45:08;;;;;;;;;;;;;;;20.53;45.13;101404.66;7255798;19;153526;-54
2023/03/19 10:47:38;;;;;;;;;;;;;;;20.58;44.94;101401.75;7255708;19;154809;-54
2023/03/19 10:50:06;;;;;;;;;;;;;;;20.56;44.59;101408.81;7254659;19;153285;-54
2023/03/19 10:52:38;;;;;;;;;;;;;;;20.52;41.56;101408.56;7260657;19;153820;-58
2023/03/19 10:55:18;;;;;;;;;;;;;;;20.46;41.23;101414.53;7264837;19;153431;-54
2023/03/19 10:57:48;;;;;;;;;;;;;;;20.57;41.30;101413.31;7258774;19;152673;-55
2023/03/19 11:00:15;;;;;;;;;;;;;;;20.62;41.80;101416.06;7258245;19;153324;-54
2023/03/19 11:02:47;;;;;;;;;;;;;;;20.70;41.76;101426.63;7258997;19;153212;-54
2023/03/19 11:05:14;;;;;;;;;;;;;;;20.71;42.45;101425.50;7258511;19;155743;-55
2023/03/19 11:07:41;;;;;;;;;;;;;;;20.74;42.02;101419.28;7258901;19;153621;-55
2023/03/19 11:10:15;;;;;;;;;;;;;;;20.78;41.85;101425.97;7258295;19;152626;-55
2023/03/19 11:12:51;;;;;;;;;;;;;;;20.81;42.10;101425.34;7260253;19;154245;-55
2023/03/19 11:15:22;;;;;;;;;;;;;;;20.83;42.42;101426.75;7253965;19;154951;-55
2023/03/19 11:17:56;;;;;;;;;;;;;;;20.86;42.06;101425.31;7267774;19;153630;-55
2023/03/19 11:20:35;;;;;;;;;;;;;;;20.88;42.09;101427.81;7257458;19;153477;-55
2023/03/19 11:23:08;;;;;;;;;;;;;;;20.94;42.21;101421.81;7260550;19;153437;-55
2023/03/19 11:25:36;;;;;;;;;;;;;;;20.97;41.85;101420.41;7260558;19;153118;-55
2023/03/19 11:28:13;;;;;;;;;;;;;;;20.99;41.81;101418.97;7260972;19;154184;-55
2023/03/19 11:30:58;;;;;;;;;;;;;;;21.03;41.99;101436.06;7256061;19;153758;-55
2023/03/19 11:33:49;;;;;;;;;;;;;;;21.04;42.02;101430.13;7257372;19;154226;-55
2023/03/19 11:36:15;;;;;;;;;;;;;;;21.06;41.69;101436.31;7256699;19;153609;-55
2023/03/19 11:39:02;;;;;;;;;;;;;;;21.08;42.07;101433.16;7262691;19;153629;-55
2023/03/19 11:41:35;;;;;;;;;;;;;;;21.08;42.03;101434.00;7254787;19;153425;-55
2023/03/19 11:44:21;;;;;;;;;;;;;;;21.09;41.61;101424.47;7254094;19;152911;-55
2023/03/19 11:46:52;;;;;;;;;;;;;;;21.13;41.64;101431.19;7254181;19;154583;-55
2023/03/19 11:49:34;;;;;;;;;;;;;;;21.14;41.77;101441.28;7253717;19;154825;-55
2023/03/19 11:52:03;;;;;;;;;;;;;;;21.17;41.32;101435.06;7254498;19;153507;-55
2023/03/19 11:54:53;;;;;;;;;;;;;;;21.18;41.43;101435.91;7256096;19;154044;-55
2023/03/19 11:57:28;;;;;;;;;;;;;;;21.18;41.63;101435.91;7249533;19;154323;-55
2023/03/19 12:00:32;;;;;;;;;;;;;;;21.19;41.08;101444.03;7254575;19;153135;-55
2023/03/19 12:03:17;;;;;;;;;;;;;;;21.20;41.44;101450.50;7259554;19;152894;-55
2023/03/19 12:06:11;;;;;;;;;;;;;;;21.20;41.41;101456.13;7256380;19;153247;-55
2023/03/19 12:08:44;;;;;;;;;;;;;;;21.20;41.33;101450.50;7248808;19;152894;-55
2023/03/19 12:11:27;;;;;;;;;;;;;;;21.19;41.20;101451.63;7251139;19;154373;-56
2023/03/19 12:14:19;;;;;;;;;;;;;;;21.19;41.03;101455.28;7248637;19;153184;-55
2023/03/19 12:16:55;;;;;;;;;;;;;;;21.17;40.80;101454.72;7254082;19;154522;-55
2023/03/19 12:19:31;;;;;;;;;;;;;;;21.15;40.56;101454.19;7256445;19;154784;-55
2023/03/19 12:22:01;;;;;;;;;;;;;;;21.16;40.84;101457.84;7255040;19;153355;-55
2023/03/19 12:24:47;;;;;;;;;;;;;;;21.12;40.45;101457.56;7255654;19;155313;-55
2023/03/19 12:27:20;;;;;;;;;;;;;;;21.10;40.56;101450.59;7263739;19;154075;-55
2023/03/19 12:29:53;;;;;;;;;;;;;;;21.07;40.82;101465.25;7258793;19;154241;-55
2023/03/19 12:32:43;;;;;;;;;;;;;;;21.08;40.70;101450.88;7259120;19;155102;-55
2023/03/19 12:35:13;;;;;;;;;;;;;;;21.04;40.63;101457.38;7266804;19;153502;-55
2023/03/19 12:37:44;;;;;;;;;;;;;;;21.01;40.57;101470.06;7264372;19;153047;-55